createdAt,value
2018-07-04T00:00:23.100Z,23.10
2018-07-04T00:03:02.044Z,23.00
2018-07-04T00:05:40.964Z,22.90
2018-07-04T00:08:19.588Z,22.70
2018-07-04T00:10:58.507Z,22.40
2018-07-04T00:13:37.448Z,22.30
2018-07-04T00:16:16.340Z,22.20
2018-07-04T00:18:55.165Z,22.20
2018-07-04T00:21:33.956Z,22.10
2018-07-04T00:24:12.629Z,22.30
2018-07-04T00:26:51.472Z,22.20
2018-07-04T00:29:30.235Z,22.10
2018-07-04T00:32:08.946Z,22.00
2018-07-04T00:34:47.750Z,22.00
2018-07-04T00:37:26.514Z,21.80
2018-07-04T00:40:05.451Z,21.80
2018-07-04T00:42:44.327Z,21.80
2018-07-04T00:45:23.219Z,21.70
2018-07-04T00:48:02.027Z,21.50
2018-07-04T00:50:41.016Z,21.60
2018-07-04T00:53:19.756Z,21.50
2018-07-04T00:55:58.618Z,21.60
2018-07-04T00:58:37.569Z,21.70
2018-07-04T01:01:16.480Z,21.60
2018-07-04T01:03:55.263Z,21.60
2018-07-04T01:09:06.704Z,21.60
2018-07-04T01:11:45.510Z,21.60
2018-07-04T01:14:24.358Z,21.40
2018-07-04T01:17:03.268Z,21.30
2018-07-04T01:19:42.103Z,21.20
2018-07-04T01:22:21.013Z,21.30
2018-07-04T01:24:59.676Z,21.30
2018-07-04T01:27:38.325Z,21.30
2018-07-04T01:30:17.196Z,21.40
2018-07-04T01:32:56.011Z,21.50
2018-07-04T01:35:34.963Z,21.50
2018-07-04T01:38:13.792Z,21.40
2018-07-04T01:40:52.587Z,21.40
2018-07-04T01:43:31.469Z,21.40
2018-07-04T01:46:10.480Z,21.40
2018-07-04T01:48:49.357Z,21.40
2018-07-04T01:51:28.282Z,21.50
2018-07-04T01:54:07.122Z,21.60
2018-07-04T01:56:45.828Z,21.60
2018-07-04T01:59:24.763Z,21.70
2018-07-04T02:02:03.419Z,21.60
2018-07-04T02:04:42.269Z,21.60
2018-07-04T02:07:20.902Z,21.50
2018-07-04T02:09:59.848Z,21.40
2018-07-04T02:12:38.719Z,21.50
2018-07-04T02:15:17.632Z,21.40
2018-07-04T02:17:56.565Z,21.40
2018-07-04T02:20:35.446Z,21.30
2018-07-04T02:23:14.346Z,21.20
2018-07-04T02:25:53.272Z,21.20
2018-07-04T02:28:32.030Z,21.10
2018-07-04T02:31:10.918Z,21.10
2018-07-04T02:33:49.741Z,21.10
2018-07-04T02:36:28.621Z,21.10
2018-07-04T02:39:07.345Z,21.20
2018-07-04T02:41:46.020Z,21.10
2018-07-04T02:44:24.820Z,21.10
2018-07-04T02:47:03.708Z,21.00
2018-07-04T02:49:42.601Z,20.80
2018-07-04T02:52:21.434Z,20.70
2018-07-04T02:55:00.163Z,20.70
2018-07-04T02:57:38.992Z,20.60
2018-07-04T03:00:17.920Z,20.60
2018-07-04T03:02:56.727Z,20.50
2018-07-04T03:05:35.671Z,20.50
2018-07-04T03:08:14.323Z,20.40
2018-07-04T03:10:53.050Z,20.30
2018-07-04T03:13:31.944Z,20.30
2018-07-04T03:16:10.664Z,20.30
2018-07-04T03:18:49.436Z,20.20
2018-07-04T03:21:28.552Z,20.30
2018-07-04T03:24:07.284Z,20.30
2018-07-04T03:26:46.062Z,20.50
2018-07-04T03:29:24.962Z,20.40
2018-07-04T03:32:03.919Z,20.30
2018-07-04T03:34:42.827Z,20.10
2018-07-04T03:37:21.468Z,20.10
2018-07-04T03:40:00.335Z,20.20
2018-07-04T03:42:39.110Z,20.20
2018-07-04T03:45:17.952Z,20.10
2018-07-04T03:47:56.651Z,20.10
2018-07-04T03:50:35.479Z,20.10
2018-07-04T03:53:14.396Z,20.10
2018-07-04T03:55:53.306Z,20.10
2018-07-04T03:58:32.000Z,20.10
2018-07-04T04:01:10.944Z,20.20
2018-07-04T04:03:49.898Z,20.30
2018-07-04T04:06:28.706Z,20.40
2018-07-04T04:11:40.298Z,20.50
2018-07-04T04:14:19.231Z,20.50
2018-07-04T04:16:57.815Z,20.60
2018-07-04T04:24:42.076Z,20.90
2018-07-04T04:27:20.958Z,20.90
2018-07-04T04:29:59.668Z,21.00
2018-07-04T04:32:38.587Z,21.00
2018-07-04T04:35:17.346Z,21.00
2018-07-04T04:37:56.117Z,21.10
2018-07-04T04:40:34.934Z,21.10
2018-07-04T04:43:13.874Z,21.10
2018-07-04T04:45:52.783Z,21.20
2018-07-04T04:48:31.567Z,21.30
2018-07-04T04:51:10.374Z,21.40
2018-07-04T04:53:49.238Z,21.50
2018-07-04T04:56:28.450Z,21.60
2018-07-04T04:59:07.265Z,21.60
2018-07-04T05:01:45.933Z,21.70
2018-07-04T05:04:24.632Z,21.70
2018-07-04T05:07:03.639Z,21.80
2018-07-04T05:09:42.375Z,21.90
2018-07-04T05:12:21.104Z,21.90
2018-07-04T05:14:59.976Z,21.90
2018-07-04T05:17:38.731Z,21.90
2018-07-04T05:20:17.658Z,22.00
2018-07-04T05:22:56.316Z,22.00
2018-07-04T05:25:35.125Z,22.10
2018-07-04T05:28:13.970Z,22.20
2018-07-04T05:30:52.766Z,22.20
2018-07-04T05:33:31.650Z,22.30
2018-07-04T05:36:10.420Z,22.40
2018-07-04T05:38:49.344Z,22.50
2018-07-04T05:41:28.144Z,22.50
2018-07-04T05:44:06.974Z,22.50
2018-07-04T05:46:45.743Z,22.60
2018-07-04T05:49:24.574Z,22.70
2018-07-04T05:52:03.376Z,22.90
2018-07-04T05:54:42.199Z,22.90
2018-07-04T05:57:21.030Z,22.90
2018-07-04T05:59:59.795Z,22.90
2018-07-04T06:02:38.705Z,23.00
2018-07-04T06:05:17.642Z,23.20
2018-07-04T06:07:56.409Z,23.20
2018-07-04T06:10:35.267Z,23.20
2018-07-04T06:13:14.312Z,23.20
2018-07-04T06:15:53.064Z,23.30
2018-07-04T06:18:31.969Z,23.40
2018-07-04T06:21:11.089Z,23.50
2018-07-04T06:23:50.011Z,23.50
2018-07-04T06:26:28.718Z,23.60
2018-07-04T06:29:07.433Z,23.60
2018-07-04T06:31:46.276Z,23.80
2018-07-04T06:34:25.237Z,23.90
2018-07-04T06:37:04.004Z,24.00
2018-07-04T06:39:30.351Z,24.00
2018-07-04T06:41:56.718Z,24.10
2018-07-04T06:44:23.112Z,24.30
2018-07-04T06:46:49.461Z,24.30
2018-07-04T06:49:15.888Z,24.50
2018-07-04T06:51:42.183Z,24.60
2018-07-04T06:54:08.588Z,24.50
2018-07-04T06:56:34.890Z,24.60
2018-07-04T06:59:01.264Z,24.40
2018-07-04T07:01:27.776Z,24.40
2018-07-04T07:04:06.451Z,24.40
2018-07-04T07:06:45.165Z,24.60
2018-07-04T07:09:23.797Z,24.60
2018-07-04T07:12:02.658Z,24.70
2018-07-04T07:14:41.523Z,24.80
2018-07-04T07:17:20.281Z,24.90
2018-07-04T07:19:59.106Z,25.00
2018-07-04T07:22:37.982Z,25.00
2018-07-04T07:25:16.886Z,25.10
2018-07-04T07:27:55.706Z,25.20
2018-07-04T07:33:07.234Z,25.40
2018-07-04T07:35:46.177Z,25.50
2018-07-04T07:38:24.898Z,25.60
2018-07-04T07:41:03.610Z,25.60
2018-07-04T07:43:42.540Z,25.60
2018-07-04T07:46:21.235Z,25.80
2018-07-04T07:49:00.074Z,25.80
2018-07-04T07:54:11.556Z,25.90
2018-07-04T07:56:50.389Z,26.00
2018-07-04T07:59:29.245Z,26.00
2018-07-04T08:02:07.965Z,26.00
2018-07-04T08:04:46.813Z,26.30
2018-07-04T08:07:25.656Z,26.30
2018-07-04T08:10:04.447Z,26.50
2018-07-04T08:12:43.277Z,26.60
2018-07-04T08:15:22.158Z,26.80
2018-07-04T08:18:01.004Z,26.90
2018-07-04T08:20:39.826Z,26.90
2018-07-04T08:23:18.554Z,27.10
2018-07-04T08:25:57.438Z,27.20
2018-07-04T08:28:36.322Z,27.20
2018-07-04T08:31:15.090Z,27.30
2018-07-04T08:33:53.962Z,27.40
2018-07-04T08:36:32.700Z,27.30
2018-07-04T08:39:11.489Z,27.30
2018-07-04T08:41:50.258Z,27.50
2018-07-04T08:44:29.007Z,27.80
2018-07-04T08:47:07.694Z,27.90
2018-07-04T08:49:46.684Z,28.20
2018-07-04T08:52:25.606Z,28.40
2018-07-04T08:55:04.555Z,28.60
2018-07-04T08:57:43.213Z,28.60
2018-07-04T09:00:22.079Z,28.70
2018-07-04T09:03:00.960Z,28.60
2018-07-04T09:05:39.895Z,28.60
2018-07-04T09:08:18.625Z,28.60
2018-07-04T09:10:57.407Z,28.80
2018-07-04T09:13:36.343Z,29.00
2018-07-04T09:16:15.186Z,29.10
2018-07-04T09:18:53.892Z,29.10
2018-07-04T09:21:32.630Z,29.30
2018-07-04T09:24:11.349Z,29.50
2018-07-04T09:26:50.140Z,29.40
2018-07-04T09:29:28.670Z,29.20
2018-07-04T09:32:07.501Z,29.30
2018-07-04T09:34:46.410Z,29.40
2018-07-04T09:37:25.249Z,29.40
2018-07-04T09:40:04.059Z,29.50
2018-07-04T09:42:42.960Z,28.90
2018-07-04T09:45:21.946Z,28.70
2018-07-04T09:48:00.767Z,28.80
2018-07-04T09:50:39.777Z,29.20
2018-07-04T09:53:18.721Z,29.20
2018-07-04T09:55:57.577Z,29.30
2018-07-04T10:01:09.189Z,29.80
2018-07-04T10:03:47.850Z,29.40
2018-07-04T10:06:26.778Z,29.20
2018-07-04T10:09:05.626Z,28.50
2018-07-04T10:11:44.452Z,27.60
2018-07-04T10:14:23.126Z,27.30
2018-07-04T10:17:02.049Z,27.30
2018-07-04T10:22:13.482Z,27.80
2018-07-04T10:24:52.169Z,27.90
2018-07-04T10:27:30.962Z,28.10
2018-07-04T10:30:09.765Z,28.30
2018-07-04T10:32:48.571Z,28.40
2018-07-04T10:35:27.266Z,28.10
2018-07-04T10:38:06.136Z,27.60
2018-07-04T10:40:45.071Z,27.70
2018-07-04T10:43:24.012Z,28.20
2018-07-04T10:46:02.783Z,28.40
2018-07-04T10:48:41.807Z,28.70
2018-07-04T10:51:20.638Z,28.90
2018-07-04T10:53:59.398Z,29.00
2018-07-04T10:56:38.229Z,28.90
2018-07-04T10:59:17.121Z,28.80
2018-07-04T11:01:55.873Z,28.20
2018-07-04T11:04:34.733Z,27.50
2018-07-04T11:07:13.270Z,27.60
2018-07-04T11:09:52.017Z,28.20
2018-07-04T11:12:30.877Z,28.40
2018-07-04T11:15:09.667Z,28.20
2018-07-04T11:17:48.521Z,28.50
2018-07-04T11:20:27.387Z,28.90
2018-07-04T11:23:06.294Z,29.20
2018-07-04T11:25:45.030Z,29.50
2018-07-04T11:28:23.776Z,29.80
2018-07-04T11:31:02.584Z,30.10
2018-07-04T11:33:41.301Z,30.20
2018-07-04T11:36:20.210Z,30.20
2018-07-04T11:38:59.034Z,29.80
2018-07-04T11:41:37.894Z,29.80
2018-07-04T11:44:16.599Z,29.70
2018-07-04T11:46:42.950Z,29.60
2018-07-04T11:49:09.296Z,29.90
2018-07-04T11:51:35.655Z,30.10
2018-07-04T11:54:01.991Z,30.50
2018-07-04T11:56:28.391Z,30.90
2018-07-04T11:58:54.715Z,31.20
2018-07-04T12:01:21.115Z,31.60
2018-07-04T12:03:59.930Z,31.50
2018-07-04T12:06:39.519Z,31.10
2018-07-04T12:09:05.877Z,30.90
2018-07-04T12:11:32.246Z,30.50
2018-07-04T12:13:58.598Z,30.10
2018-07-04T12:16:24.942Z,30.00
2018-07-04T12:18:51.308Z,30.40
2018-07-04T12:21:17.650Z,30.60
2018-07-04T12:23:44.012Z,30.40
2018-07-04T12:26:10.390Z,30.50
2018-07-04T12:28:36.823Z,30.30
2018-07-04T12:31:03.185Z,30.10
2018-07-04T12:33:29.538Z,30.00
2018-07-04T12:35:56.714Z,29.90
2018-07-04T12:38:23.071Z,30.00
2018-07-04T12:40:49.423Z,29.90
2018-07-04T12:43:15.842Z,30.30
2018-07-04T12:45:42.178Z,30.60
2018-07-04T12:48:08.542Z,30.80
2018-07-04T12:50:34.893Z,30.90
2018-07-04T12:53:01.259Z,30.80
2018-07-04T12:55:40.034Z,30.90
2018-07-04T12:58:18.799Z,30.80
2018-07-04T13:00:57.656Z,30.90
2018-07-04T13:03:36.443Z,30.20
2018-07-04T13:06:15.428Z,29.50
2018-07-04T13:08:54.259Z,29.50
2018-07-04T13:11:33.004Z,29.80
2018-07-04T13:14:11.639Z,29.60
2018-07-04T13:16:50.366Z,29.60
2018-07-04T13:19:29.348Z,29.80
2018-07-04T13:22:08.078Z,30.00
2018-07-04T13:24:46.862Z,29.60
2018-07-04T13:27:25.618Z,29.20
2018-07-04T13:30:04.533Z,28.70
2018-07-04T13:32:43.345Z,28.50
2018-07-04T13:35:22.302Z,28.70
2018-07-04T13:38:01.095Z,28.30
2018-07-04T13:40:39.876Z,27.70
2018-07-04T13:43:18.757Z,27.60
2018-07-04T13:45:57.531Z,27.70
2018-07-04T13:48:36.250Z,27.60
2018-07-04T13:51:15.274Z,27.10
2018-07-04T13:53:53.893Z,27.00
2018-07-04T13:56:32.687Z,27.00
2018-07-04T13:59:11.439Z,27.10
2018-07-04T14:01:50.228Z,27.30
2018-07-04T14:04:29.083Z,27.30
2018-07-04T14:07:07.895Z,27.50
2018-07-04T14:09:46.603Z,27.70
2018-07-04T14:12:25.347Z,27.70
2018-07-04T14:15:04.218Z,27.80
2018-07-04T14:17:43.168Z,28.20
2018-07-04T14:20:22.490Z,28.50
2018-07-04T14:23:01.223Z,28.80
2018-07-04T14:25:40.072Z,29.00
2018-07-04T14:28:19.870Z,29.00
2018-07-04T14:31:00.467Z,29.00
2018-07-04T14:33:39.290Z,28.90
2018-07-04T14:36:18.163Z,28.90
2018-07-04T14:38:57.012Z,29.00
2018-07-04T14:41:35.714Z,29.00
2018-07-04T14:44:14.559Z,28.90
2018-07-04T14:46:53.631Z,28.70
2018-07-04T14:49:32.283Z,28.20
2018-07-04T14:52:11.217Z,27.60
2018-07-04T14:54:49.899Z,26.80
2018-07-04T14:57:28.730Z,26.40
2018-07-04T15:00:07.423Z,26.60
2018-07-04T15:02:46.270Z,27.10
2018-07-04T15:05:25.108Z,27.00
2018-07-04T15:08:03.970Z,26.90
2018-07-04T15:10:42.695Z,27.00
2018-07-04T15:13:21.541Z,26.90
2018-07-04T15:16:00.587Z,26.70
2018-07-04T15:18:39.423Z,26.80
2018-07-04T15:21:18.005Z,26.70
2018-07-04T15:23:56.860Z,26.90
2018-07-04T15:26:35.668Z,26.60
2018-07-04T15:29:14.571Z,26.70
2018-07-04T15:31:53.334Z,26.80
2018-07-04T15:34:32.085Z,26.90
2018-07-04T15:37:11.112Z,27.10
2018-07-04T15:39:49.899Z,27.30
2018-07-04T15:42:28.802Z,27.60
2018-07-04T15:45:07.601Z,27.80
2018-07-04T15:47:46.359Z,27.90
2018-07-04T15:50:25.173Z,28.10
2018-07-04T15:53:04.237Z,28.00
2018-07-04T15:55:42.924Z,28.00
2018-07-04T15:58:21.902Z,27.50
2018-07-04T16:01:00.646Z,27.30
2018-07-04T16:03:39.512Z,27.20
2018-07-04T16:06:18.155Z,27.30
2018-07-04T16:08:56.961Z,27.20
2018-07-04T16:11:35.872Z,26.80
2018-07-04T16:14:14.754Z,26.40
2018-07-04T16:16:53.646Z,26.10
2018-07-04T16:19:32.499Z,26.00
2018-07-04T16:22:11.251Z,26.10
2018-07-04T16:24:49.950Z,26.30
2018-07-04T16:27:28.850Z,26.50
2018-07-04T16:30:07.719Z,26.70
2018-07-04T16:32:46.350Z,26.80
2018-07-04T16:35:25.221Z,27.00
2018-07-04T16:38:04.069Z,27.10
2018-07-04T16:40:42.839Z,27.20
2018-07-04T16:43:21.615Z,27.20
2018-07-04T16:46:00.389Z,27.30
2018-07-04T16:48:39.280Z,27.40
2018-07-04T16:51:18.148Z,27.40
2018-07-04T16:53:56.879Z,27.50
2018-07-04T16:56:35.764Z,27.50
2018-07-04T16:59:14.601Z,27.40
2018-07-04T17:01:53.497Z,27.30
2018-07-04T17:04:32.091Z,27.20
2018-07-04T17:07:11.001Z,27.10
2018-07-04T17:09:49.882Z,27.10
2018-07-04T17:12:28.754Z,27.20
2018-07-04T17:15:07.518Z,27.00
2018-07-04T17:17:46.382Z,27.00
2018-07-04T17:20:25.196Z,27.00
2018-07-04T17:23:04.114Z,27.00
2018-07-04T17:25:42.858Z,27.10
2018-07-04T17:28:21.746Z,27.10
2018-07-04T17:31:00.668Z,26.90
2018-07-04T17:33:39.634Z,26.60
2018-07-04T17:36:18.509Z,26.40
2018-07-04T17:38:57.258Z,26.00
2018-07-04T17:41:36.050Z,25.40
2018-07-04T17:44:14.902Z,24.80
2018-07-04T17:46:53.616Z,24.50
2018-07-04T17:49:32.477Z,24.30
2018-07-04T17:52:11.349Z,24.20
2018-07-04T17:54:50.208Z,24.40
2018-07-04T17:57:29.026Z,24.40
2018-07-04T18:00:07.886Z,24.80
2018-07-04T18:02:46.782Z,25.10
2018-07-04T18:05:25.640Z,25.10
2018-07-04T18:08:04.267Z,24.80
2018-07-04T18:10:43.105Z,25.00
2018-07-04T18:13:22.054Z,25.10
2018-07-04T18:16:00.814Z,24.90
2018-07-04T18:18:39.538Z,24.80
2018-07-04T18:21:18.402Z,24.80
2018-07-04T18:23:57.261Z,24.80
2018-07-04T18:26:36.190Z,24.90
2018-07-04T18:29:14.878Z,25.00
2018-07-04T18:31:53.609Z,25.30
2018-07-04T18:34:32.409Z,25.40
2018-07-04T18:37:11.591Z,25.70
2018-07-04T18:39:50.273Z,25.60
2018-07-04T18:42:29.551Z,25.60
2018-07-04T18:45:08.135Z,25.60
2018-07-04T18:47:46.827Z,25.50
2018-07-04T18:50:25.609Z,25.70
2018-07-04T18:53:04.526Z,25.90
2018-07-04T18:55:43.331Z,25.90
2018-07-04T18:58:22.247Z,26.00
2018-07-04T19:01:01.059Z,26.00
2018-07-04T19:03:40.021Z,26.00
2018-07-04T19:06:18.987Z,26.00
2018-07-04T19:08:57.677Z,26.00
2018-07-04T19:11:36.390Z,26.10
2018-07-04T19:14:15.173Z,26.00
2018-07-04T19:16:53.909Z,26.00
2018-07-04T19:19:32.875Z,26.00
2018-07-04T19:22:11.555Z,26.00
2018-07-04T19:24:50.506Z,25.90
2018-07-04T19:27:29.282Z,25.90
2018-07-04T19:30:08.202Z,25.90
2018-07-04T19:32:46.786Z,25.90
2018-07-04T19:35:25.619Z,25.80
2018-07-04T19:38:04.529Z,25.70
2018-07-04T19:40:43.442Z,25.50
2018-07-04T19:43:22.216Z,25.40
2018-07-04T19:46:00.928Z,25.10
2018-07-04T19:48:39.738Z,24.90
2018-07-04T19:51:18.718Z,24.70
2018-07-04T19:53:57.383Z,24.60
2018-07-04T19:56:36.190Z,24.60
2018-07-04T19:59:15.033Z,24.60
2018-07-04T20:01:53.673Z,24.60
2018-07-04T20:04:32.420Z,24.60
2018-07-04T20:07:11.311Z,24.60
2018-07-04T20:09:50.405Z,24.60
2018-07-04T20:12:29.223Z,24.30
2018-07-04T20:15:08.145Z,23.90
2018-07-04T20:17:46.922Z,23.50
2018-07-04T20:20:25.836Z,23.30
2018-07-04T20:23:04.616Z,23.00
2018-07-04T20:25:43.618Z,22.70
2018-07-04T20:28:22.446Z,22.60
2018-07-04T20:31:01.295Z,22.80
2018-07-04T20:33:40.226Z,22.80
2018-07-04T20:36:19.014Z,22.80
2018-07-04T20:38:57.681Z,22.70
2018-07-04T20:41:36.519Z,22.50
2018-07-04T20:44:15.370Z,22.20
2018-07-04T20:46:54.238Z,22.20
2018-07-04T20:49:33.162Z,22.30
2018-07-04T20:52:12.022Z,22.20
2018-07-04T20:54:50.796Z,22.30
2018-07-04T20:57:29.527Z,22.40
2018-07-04T21:00:08.529Z,22.50
2018-07-04T21:02:47.106Z,22.60
2018-07-04T21:07:58.629Z,22.70
2018-07-04T21:13:10.288Z,22.70
2018-07-04T21:15:49.142Z,22.60
2018-07-04T21:18:28.010Z,22.50
2018-07-04T21:21:06.791Z,22.60
2018-07-04T21:23:45.532Z,22.60
2018-07-04T21:28:57.195Z,22.70
2018-07-04T21:31:36.074Z,22.70
2018-07-04T21:34:15.600Z,22.50
2018-07-04T21:36:54.968Z,22.30
2018-07-04T21:39:33.691Z,22.00
2018-07-04T21:42:12.504Z,22.00
2018-07-04T21:44:51.370Z,21.90
2018-07-04T21:47:30.131Z,21.90
2018-07-04T21:50:13.693Z,22.00
2018-07-04T21:52:52.586Z,22.00
2018-07-04T21:55:31.469Z,22.10
2018-07-04T21:58:10.311Z,22.00
2018-07-04T22:00:49.167Z,21.80
2018-07-04T22:03:27.844Z,21.70
2018-07-04T22:06:06.635Z,21.70
2018-07-04T22:08:45.506Z,21.70
2018-07-04T22:11:24.303Z,21.70
2018-07-04T22:14:03.078Z,21.70
2018-07-04T22:16:42.319Z,21.70
2018-07-04T22:21:53.972Z,21.70
2018-07-04T22:24:32.751Z,21.80
2018-07-04T22:27:13.186Z,21.70
2018-07-04T22:29:52.035Z,21.60
2018-07-04T22:32:30.867Z,21.40
2018-07-04T22:35:09.718Z,21.60
2018-07-04T22:37:48.474Z,21.70
2018-07-04T22:40:27.137Z,21.60
2018-07-04T22:43:05.957Z,21.40
2018-07-04T22:45:44.828Z,21.40
2018-07-04T22:48:23.501Z,21.30
2018-07-04T22:51:02.277Z,21.20
2018-07-04T22:53:41.097Z,21.20
2018-07-04T22:56:19.922Z,21.10
2018-07-04T22:58:58.620Z,21.20
2018-07-04T23:01:37.468Z,21.20
2018-07-04T23:04:17.258Z,21.10
2018-07-04T23:06:56.123Z,21.20
2018-07-04T23:09:34.858Z,21.10
2018-07-04T23:12:13.691Z,21.10
2018-07-04T23:14:52.510Z,21.10
2018-07-04T23:17:38.076Z,21.10
2018-07-04T23:20:16.930Z,21.10
2018-07-04T23:22:55.903Z,21.10
2018-07-04T23:25:34.828Z,21.10
2018-07-04T23:28:13.631Z,21.10
2018-07-04T23:30:52.363Z,21.20
2018-07-04T23:33:31.342Z,21.10
2018-07-04T23:36:10.343Z,21.10
2018-07-04T23:38:48.904Z,21.10
2018-07-04T23:41:27.531Z,21.00
2018-07-04T23:44:06.416Z,20.80
2018-07-04T23:46:45.271Z,20.50
2018-07-04T23:49:23.918Z,20.20
2018-07-04T23:52:02.581Z,20.00
2018-07-04T23:54:41.404Z,20.00
